Time;durP1;ratioP1;P1;durP2;ratioP2;P2;SDS_P1;SDS_P2;PMS_P1;PMS_P2;Temp;Humidity;BMP_temperature;BMP_pressure;BME280_temperature;BME280_humidity;BME280_pressure;Samples;Min_cycle;Max_cycle;Signal;HPM_P1;HPM_P2
2021/12/02 00:02:07;;;;;;;1.10;0.73;;;17.80;50.40;;;;;;5115904;28;20043;-59
2021/12/02 00:04:36;;;;;;;1.77;0.82;;;17.80;50.40;;;;;;5115607;28;20019;-60
2021/12/02 00:07:04;;;;;;;1.58;0.60;;;17.80;50.40;;;;;;5115508;28;20064;-60
2021/12/02 00:09:30;;;;;;;1.90;0.88;;;17.80;50.50;;;;;;5115520;28;20028;-59
2021/12/02 00:11:56;;;;;;;1.00;0.73;;;17.80;50.50;;;;;;5115471;28;20482;-59
2021/12/02 00:14:24;;;;;;;1.50;0.82;;;17.80;50.60;;;;;;5115770;28;20027;-60
2021/12/02 00:17:05;;;;;;;1.52;0.68;;;17.80;50.50;;;;;;5115803;28;20007;-59
2021/12/02 00:22:16;;;;;;;1.73;0.80;;;17.80;50.60;;;;;;5115536;28;20089;-59
2021/12/02 00:24:44;;;;;;;1.48;0.90;;;17.70;50.60;;;;;;5113948;28;20015;-59
2021/12/02 00:27:10;;;;;;;1.58;0.80;;;17.70;50.60;;;;;;5097559;28;20063;-59
2021/12/02 00:29:39;;;;;;;2.47;1.30;;;17.70;50.60;;;;;;5115223;28;20019;-59
2021/12/02 00:32:10;;;;;;;2.83;1.13;;;17.70;50.60;;;;;;5114989;28;20027;-60
2021/12/02 00:34:38;;;;;;;1.63;0.90;;;17.70;50.70;;;;;;5115253;28;20038;-60
2021/12/02 00:37:04;;;;;;;2.15;0.90;;;17.70;50.70;;;;;;5097005;28;20027;-59
2021/12/02 00:39:30;;;;;;;3.08;1.00;;;17.70;50.70;;;;;;5114503;28;20091;-59
2021/12/02 00:41:56;;;;;;;2.10;1.05;;;17.70;50.60;;;;;;5096720;28;20482;-59
2021/12/02 00:44:23;;;;;;;1.55;0.82;;;17.70;50.70;;;;;;5114947;28;20370;-59
2021/12/02 00:46:51;;;;;;;2.20;1.00;;;17.70;50.70;;;;;;5114839;28;20016;-59
2021/12/02 00:49:18;;;;;;;1.48;0.93;;;17.70;50.70;;;;;;5114820;28;20103;-59
2021/12/02 00:51:54;;;;;;;1.15;0.70;;;17.70;50.60;;;;;;5114638;28;20012;-59
2021/12/02 00:54:19;;;;;;;3.08;1.00;;;17.70;50.70;;;;;;5114693;28;20024;-59
2021/12/02 00:56:45;;;;;;;1.95;1.00;;;17.70;50.70;;;;;;5113309;28;20091;-59
2021/12/02 00:59:14;;;;;;;2.33;1.00;;;17.70;50.60;;;;;;5113320;28;20392;-60
2021/12/02 01:01:41;;;;;;;1.83;0.93;;;17.60;50.70;;;;;;5113477;28;20019;-59
2021/12/02 01:04:09;;;;;;;2.00;1.00;;;17.70;50.80;;;;;;5114455;28;20381;-59
2021/12/02 01:06:35;;;;;;;1.55;0.70;;;17.60;50.70;;;;;;5114353;28;20024;-60
2021/12/02 01:09:02;;;;;;;1.70;0.82;;;17.60;50.70;;;;;;5112896;28;20047;-59
2021/12/02 01:11:30;;;;;;;1.95;1.10;;;17.70;50.80;;;;;;5114831;28;20016;-59
2021/12/02 01:13:56;;;;;;;2.28;1.02;;;17.70;50.70;;;;;;5114720;28;20020;-60
2021/12/02 01:16:23;;;;;;;2.25;1.02;;;17.70;50.70;;;;;;5114761;28;20031;-59
2021/12/02 01:18:49;;;;;;;1.55;0.95;;;17.60;50.80;;;;;;5114816;28;20145;-59
2021/12/02 01:21:18;;;;;;;2.13;1.10;;;17.60;50.80;;;;;;5114960;28;20032;-59
2021/12/02 01:23:45;;;;;;;2.53;1.30;;;17.60;50.80;;;;;;5114513;28;20026;-59
2021/12/02 01:26:12;;;;;;;1.63;1.10;;;17.60;50.90;;;;;;5113553;28;20023;-59
2021/12/02 01:28:39;;;;;;;2.63;1.20;;;17.60;50.80;;;;;;5096322;28;20098;-59
2021/12/02 01:31:06;;;;;;;1.95;0.98;;;17.60;50.90;;;;;;5114167;28;20034;-60
2021/12/02 01:33:32;;;;;;;1.95;0.98;;;17.60;50.90;;;;;;5113947;28;20028;-59
2021/12/02 01:36:03;;;;;;;3.05;1.23;;;17.60;50.90;;;;;;5112749;28;20020;-60
2021/12/02 01:38:29;;;;;;;1.83;1.10;;;17.60;50.90;;;;;;5113622;28;20012;-59
2021/12/02 01:40:56;;;;;;;2.45;1.13;;;17.60;50.90;;;;;;5113668;28;20442;-60
2021/12/02 01:43:32;;;;;;;5.07;1.23;;;17.60;51.40;;;;;;5113789;27;20018;-60
2021/12/02 01:45:59;;;;;;;2.80;1.27;;;17.50;50.80;;;;;;5113751;28;20040;-59
2021/12/02 01:48:26;;;;;;;2.33;1.33;;;17.50;50.80;;;;;;5112419;28;20099;-60
2021/12/02 01:51:03;;;;;;;1.65;1.00;;;17.50;50.80;;;;;;5095579;28;20073;-59
2021/12/02 01:53:31;;;;;;;2.30;1.17;;;17.50;50.90;;;;;;5113563;28;20012;-59
2021/12/02 01:55:57;;;;;;;2.75;1.38;;;17.50;50.90;;;;;;5113537;27;20461;-59
2021/12/02 01:58:23;;;;;;;2.95;1.30;;;17.50;50.70;;;;;;5095729;28;20059;-60
2021/12/02 02:00:50;;;;;;;1.60;1.10;;;17.50;50.80;;;;;;5112281;28;20072;-59
2021/12/02 02:03:17;;;;;;;1.80;1.05;;;17.50;50.80;;;;;;5112225;28;20038;-60
2021/12/02 02:05:44;;;;;;;2.85;1.48;;;17.50;50.90;;;;;;5113414;28;20545;-59
2021/12/02 02:08:15;;;;;;;2.22;1.15;;;17.50;50.80;;;;;;5113233;28;21114;-59
2021/12/02 02:10:42;;;;;;;2.33;1.30;;;17.50;50.80;;;;;;5113812;28;20016;-59
2021/12/02 02:13:10;;;;;;;3.85;1.20;;;17.50;50.80;;;;;;5112846;28;20092;-59
2021/12/02 02:15:37;;;;;;;1.83;1.33;;;17.50;50.90;;;;;;5114012;28;20019;-59
2021/12/02 02:20:39;;;;;;;2.10;1.30;;;17.40;50.90;;;;;;5113223;28;20027;-59
2021/12/02 02:23:08;;;;;;;2.65;1.20;;;17.50;50.70;;;;;;5113534;28;20023;-59
2021/12/02 02:25:35;;;;;;;2.60;1.45;;;17.50;50.80;;;;;;5111923;28;20020;-59
2021/12/02 02:28:02;;;;;;;2.38;1.35;;;17.50;50.90;;;;;;5113339;28;20032;-60
2021/12/02 02:30:29;;;;;;;2.38;1.25;;;17.50;50.80;;;;;;5113264;28;20073;-60
2021/12/02 02:32:56;;;;;;;1.98;1.25;;;17.50;50.80;;;;;;5113395;28;20084;-59
2021/12/02 02:35:23;;;;;;;2.33;1.38;;;17.40;50.80;;;;;;5113148;28;20057;-59
2021/12/02 02:37:50;;;;;;;1.63;1.30;;;17.40;50.80;;;;;;5113144;28;20027;-60
2021/12/02 02:40:17;;;;;;;2.15;1.13;;;17.40;50.80;;;;;;5113489;28;20466;-60
2021/12/02 02:42:49;;;;;;;3.00;1.60;;;17.40;50.90;;;;;;5113225;27;20516;-60
2021/12/02 02:45:18;;;;;;;2.67;1.38;;;17.40;50.90;;;;;;5113068;28;20489;-59
2021/12/02 02:47:50;;;;;;;2.30;1.23;;;17.40;50.90;;;;;;5113183;28;20042;-60
2021/12/02 02:50:17;;;;;;;2.28;1.15;;;17.40;50.80;;;;;;5114448;28;20015;-59
2021/12/02 02:52:44;;;;;;;4.50;1.50;;;17.40;50.80;;;;;;5115838;28;20016;-59
2021/12/02 02:55:19;;;;;;;3.67;1.60;;;17.40;51.30;;;;;;5117024;28;20053;-59
2021/12/02 02:57:56;;;;;;;2.25;1.40;;;17.40;50.80;;;;;;5116878;28;20022;-59
2021/12/02 03:00:31;;;;;;;2.40;1.30;;;17.40;50.80;;;;;;5115714;28;20497;-59
2021/12/02 03:03:12;;;;;;;1.95;1.27;;;17.40;50.80;;;;;;5116742;28;20051;-60
2021/12/02 03:05:56;;;;;;;2.50;1.20;;;17.40;50.80;;;;;;5115756;28;20038;-59
2021/12/02 03:08:31;;;;;;;3.72;1.40;;;17.40;50.80;;;;;;5115432;28;20075;-59
2021/12/02 03:10:58;;;;;;;2.42;1.38;;;17.40;50.80;;;;;;5116675;28;20018;-60
2021/12/02 03:13:37;;;;;;;2.55;1.38;;;17.40;50.90;;;;;;5115372;28;20469;-60
2021/12/02 03:18:51;;;;;;;1.92;1.20;;;17.30;50.80;;;;;;5116468;28;20030;-59
2021/12/02 03:21:21;;;;;;;3.17;1.48;;;17.30;50.80;;;;;;5116428;28;20465;-59
2021/12/02 03:23:54;;;;;;;2.95;1.35;;;17.30;50.80;;;;;;5116750;28;20043;-59
2021/12/02 03:26:20;;;;;;;2.47;1.50;;;17.30;50.80;;;;;;5116408;28;20030;-59
2021/12/02 03:28:50;;;;;;;2.72;1.38;;;17.30;50.80;;;;;;5116432;27;20107;-59
2021/12/02 03:31:16;;;;;;;3.17;1.25;;;17.30;50.80;;;;;;5116589;28;20019;-59
2021/12/02 03:33:42;;;;;;;3.92;1.75;;;17.30;50.80;;;;;;5116327;28;20012;-59
2021/12/02 03:36:09;;;;;;;2.63;1.45;;;17.30;50.80;;;;;;5116423;28;20369;-59
2021/12/02 03:38:34;;;;;;;1.98;1.20;;;17.30;50.90;;;;;;5116468;28;20047;-60
2021/12/02 03:41:00;;;;;;;2.30;1.10;;;17.30;50.90;;;;;;5116116;28;20429;-59
2021/12/02 03:43:27;;;;;;;3.03;1.45;;;17.30;50.90;;;;;;5114753;28;20099;-60
2021/12/02 03:45:53;;;;;;;1.63;0.88;;;17.30;50.90;;;;;;5114787;28;20031;-59
2021/12/02 03:48:20;;;;;;;3.35;1.65;;;17.30;50.90;;;;;;5116188;28;20024;-59
2021/12/02 03:50:46;;;;;;;2.42;1.40;;;17.30;50.90;;;;;;5116083;28;20369;-59
2021/12/02 03:53:11;;;;;;;2.53;1.40;;;17.30;51.00;;;;;;5114730;28;20027;-59
2021/12/02 03:55:38;;;;;;;2.20;1.42;;;17.30;51.00;;;;;;5116072;28;20032;-59
2021/12/02 03:58:05;;;;;;;2.65;1.25;;;17.30;51.00;;;;;;5114634;28;20015;-58
2021/12/02 04:00:30;;;;;;;2.47;1.38;;;17.30;51.00;;;;;;5115623;27;20081;-59
2021/12/02 04:02:57;;;;;;;3.95;1.55;;;17.30;51.00;;;;;;5115737;28;20472;-59
2021/12/02 04:05:23;;;;;;;2.70;1.50;;;17.30;51.00;;;;;;5114485;28;20116;-59
2021/12/02 04:07:50;;;;;;;2.80;1.33;;;17.30;51.00;;;;;;5115557;27;20043;-59
2021/12/02 04:10:16;;;;;;;2.25;1.40;;;17.30;51.00;;;;;;5115356;28;20023;-59
2021/12/02 04:15:35;;;;;;;2.85;1.40;;;17.30;51.00;;;;;;5115618;28;20057;-59
2021/12/02 04:18:01;;;;;;;4.07;1.40;;;17.20;51.00;;;;;;5115192;28;20011;-59
2021/12/02 04:20:27;;;;;;;2.55;1.58;;;17.30;50.80;;;;;;5114041;28;20016;-60
2021/12/02 04:22:53;;;;;;;2.42;1.42;;;17.40;50.60;;;;;;5113965;28;20102;-60
2021/12/02 04:25:19;;;;;;;2.65;1.50;;;17.50;50.30;;;;;;5115111;28;20030;-59
2021/12/02 04:27:46;;;;;;;2.17;1.15;;;17.60;50.20;;;;;;5113928;28;20106;-60
2021/12/02 04:30:13;;;;;;;2.03;1.30;;;17.60;50.10;;;;;;5115130;28;20008;-60
2021/12/02 04:32:39;;;;;;;1.95;1.10;;;17.70;50.00;;;;;;5115209;28;20061;-59
2021/12/02 04:35:06;;;;;;;3.55;1.35;;;17.80;49.80;;;;;;5115340;28;20086;-59
2021/12/02 04:37:32;;;;;;;2.78;1.52;;;17.80;49.60;;;;;;5114937;28;20448;-60
2021/12/02 04:39:57;;;;;;;1.80;1.27;;;17.90;49.40;;;;;;5113934;28;20027;-59
2021/12/02 04:42:23;;;;;;;2.40;1.30;;;18.00;49.20;;;;;;5115096;28;20064;-59
2021/12/02 04:44:49;;;;;;;2.53;1.33;;;18.10;49.00;;;;;;5113961;28;20465;-59
2021/12/02 04:47:15;;;;;;;3.20;1.50;;;18.20;48.80;;;;;;5115019;28;20024;-59
2021/12/02 04:49:41;;;;;;;1.85;1.20;;;18.30;48.70;;;;;;5115056;28;20068;-59
2021/12/02 04:52:07;;;;;;;4.18;1.30;;;18.40;48.40;;;;;;5114828;28;20026;-59
2021/12/02 04:54:34;;;;;;;1.95;1.10;;;18.40;48.70;;;;;;5113677;28;20018;-59
2021/12/02 04:57:00;;;;;;;2.83;1.60;;;18.60;48.10;;;;;;5113471;28;20024;-60
2021/12/02 04:59:25;;;;;;;2.00;1.30;;;18.60;47.90;;;;;;5114410;28;20019;-59
2021/12/02 05:01:51;;;;;;;3.55;1.40;;;18.70;47.70;;;;;;5114550;28;20023;-59
2021/12/02 05:04:17;;;;;;;2.65;1.30;;;18.70;47.50;;;;;;5114431;28;20019;-59
2021/12/02 05:06:43;;;;;;;1.98;1.40;;;18.80;47.30;;;;;;5114639;28;20038;-59
2021/12/02 05:09:09;;;;;;;1.98;1.20;;;18.90;47.10;;;;;;5112907;28;20035;-60
2021/12/02 05:11:37;;;;;;;2.47;1.27;;;19.00;46.90;;;;;;5114504;28;20491;-59
2021/12/02 05:14:03;;;;;;;2.50;1.42;;;19.10;46.70;;;;;;5113934;28;20019;-59
2021/12/02 05:16:29;;;;;;;1.80;1.02;;;19.20;46.50;;;;;;5113122;28;20016;-60
2021/12/02 05:18:55;;;;;;;2.28;1.17;;;19.30;46.40;;;;;;5113220;28;20030;-60
2021/12/02 05:21:21;;;;;;;1.83;1.13;;;19.40;46.20;;;;;;5096029;28;20502;-60
2021/12/02 05:23:52;;;;;;;2.00;1.25;;;19.40;46.00;;;;;;5112909;28;20043;-61
2021/12/02 05:26:18;;;;;;;1.98;1.30;;;19.50;46.00;;;;;;5114449;28;20015;-60
2021/12/02 05:28:44;;;;;;;2.47;1.25;;;19.60;45.70;;;;;;5113990;28;20024;-59
2021/12/02 05:31:10;;;;;;;1.80;0.95;;;19.70;45.60;;;;;;5112756;28;20012;-60
2021/12/02 05:33:36;;;;;;;1.77;1.10;;;19.80;45.50;;;;;;5114023;28;20019;-59
2021/12/02 05:36:02;;;;;;;1.70;1.02;;;19.80;45.40;;;;;;5114071;28;20049;-60
2021/12/02 05:38:28;;;;;;;1.92;1.17;;;19.90;45.30;;;;;;5114141;27;20015;-60
2021/12/02 05:40:55;;;;;;;2.03;1.20;;;20.00;45.10;;;;;;5112686;28;20089;-60
2021/12/02 05:43:21;;;;;;;2.40;1.23;;;20.00;45.00;;;;;;5114016;28;20026;-59
2021/12/02 05:45:48;;;;;;;2.15;1.30;;;20.10;44.90;;;;;;5114045;28;20019;-60
2021/12/02 05:48:14;;;;;;;1.85;1.00;;;20.20;44.80;;;;;;5113997;28;20019;-60
2021/12/02 05:50:40;;;;;;;2.42;1.23;;;20.30;44.60;;;;;;5113649;28;20366;-60
2021/12/02 05:53:06;;;;;;;2.45;1.30;;;20.30;44.50;;;;;;5114040;28;20020;-60
2021/12/02 05:55:37;;;;;;;1.85;1.20;;;20.40;44.40;;;;;;5113826;28;20462;-60
2021/12/02 05:58:04;;;;;;;2.55;1.30;;;20.40;44.40;;;;;;5112370;28;20076;-60
2021/12/02 06:00:29;;;;;;;1.85;1.20;;;20.50;44.30;;;;;;5112413;28;20095;-59
2021/12/02 06:02:55;;;;;;;2.20;1.42;;;20.50;44.20;;;;;;5113680;28;20058;-59
2021/12/02 06:05:21;;;;;;;1.55;1.00;;;20.60;44.00;;;;;;5113337;28;20019;-60
2021/12/02 06:07:50;;;;;;;2.28;1.27;;;20.70;43.90;;;;;;5113203;28;20133;-60
2021/12/02 06:10:19;;;;;;;2.20;1.35;;;20.80;43.80;;;;;;5113878;28;20012;-60
2021/12/02 06:12:44;;;;;;;1.70;1.10;;;20.80;43.80;;;;;;5112533;28;20133;-59
2021/12/02 06:15:11;;;;;;;2.08;1.23;;;20.90;43.60;;;;;;5095705;28;20027;-59
2021/12/02 06:17:37;;;;;;;2.55;1.50;;;20.90;43.40;;;;;;5113795;28;20099;-60
2021/12/02 06:20:05;;;;;;;1.65;0.98;;;21.00;43.40;;;;;;5113576;28;20103;-60
2021/12/02 06:22:31;;;;;;;2.35;1.30;;;21.00;43.30;;;;;;5113697;28;20087;-59
2021/12/02 06:27:52;;;;;;;1.50;0.88;;;21.10;43.10;;;;;;5116540;28;20027;-60
2021/12/02 06:30:18;;;;;;;2.33;1.10;;;21.20;43.00;;;;;;5117693;28;20496;-60
2021/12/02 06:32:44;;;;;;;1.98;1.08;;;21.20;43.00;;;;;;5117556;28;20020;-59
2021/12/02 06:35:10;;;;;;;1.50;1.20;;;21.30;42.90;;;;;;5117937;28;20038;-59
2021/12/02 06:37:36;;;;;;;2.05;1.08;;;21.30;42.70;;;;;;5117388;28;20485;-59
2021/12/02 06:40:03;;;;;;;2.45;1.10;;;21.40;42.70;;;;;;5117737;28;20012;-59
2021/12/02 06:42:28;;;;;;;1.38;0.90;;;21.40;42.60;;;;;;5117693;28;20043;-59
2021/12/02 06:44:57;;;;;;;1.63;1.25;;;21.40;42.50;;;;;;5099301;28;20485;-60
2021/12/02 06:47:28;;;;;;;2.40;1.15;;;21.50;42.50;;;;;;5116157;28;20470;-60
2021/12/02 06:49:53;;;;;;;3.38;1.10;;;21.60;42.40;;;;;;5117551;28;20077;-60
2021/12/02 06:52:22;;;;;;;1.65;0.95;;;21.60;42.30;;;;;;5115827;28;20015;-60
2021/12/02 06:54:48;;;;;;;3.05;1.50;;;21.60;42.20;;;;;;5098998;28;20046;-60
2021/12/02 06:57:15;;;;;;;2.20;1.10;;;21.70;42.20;;;;;;5116932;28;20477;-60
2021/12/02 06:59:41;;;;;;;1.67;1.08;;;21.70;42.10;;;;;;5117064;28;20027;-60
2021/12/02 07:02:08;;;;;;;1.70;1.00;;;21.80;42.10;;;;;;5115835;28;20058;-60
2021/12/02 07:04:36;;;;;;;1.95;1.20;;;21.80;41.90;;;;;;5116245;28;20031;-60
2021/12/02 07:07:02;;;;;;;1.65;1.25;;;21.80;41.80;;;;;;5115002;28;20031;-60
2021/12/02 07:09:28;;;;;;;2.70;1.20;;;21.90;41.90;;;;;;5116594;28;20030;-60
2021/12/02 07:11:54;;;;;;;2.08;1.02;;;21.90;41.90;;;;;;5115339;28;20469;-60
2021/12/02 07:14:21;;;;;;;1.60;1.00;;;22.00;41.80;;;;;;5116347;28;20027;-60
2021/12/02 07:16:47;;;;;;;1.70;1.00;;;22.00;41.70;;;;;;5116421;28;20026;-60
2021/12/02 07:19:14;;;;;;;2.35;1.30;;;22.00;41.70;;;;;;5115646;28;20027;-60
2021/12/02 07:21:40;;;;;;;2.13;1.15;;;22.00;41.70;;;;;;5114424;28;20043;-60
2021/12/02 07:24:14;;;;;;;6.13;1.13;;;22.00;41.50;;;;;;5114981;28;20076;-60
2021/12/02 07:26:43;;;;;;;3.53;0.90;;;21.70;40.30;;;;;;5114994;28;20016;-58
2021/12/02 07:29:12;;;;;;;5.35;0.80;;;21.30;41.40;;;;;;5096705;28;20024;-58
2021/12/02 07:31:40;;;;;;;2.38;0.93;;;21.10;40.80;;;;;;5114766;28;20011;-58
2021/12/02 07:34:05;;;;;;;5.40;0.88;;;21.00;40.70;;;;;;5097331;28;20019;-58
2021/12/02 07:36:34;;;;;;;3.50;0.90;;;20.90;40.20;;;;;;5113532;28;20020;-58
2021/12/02 07:39:00;;;;;;;4.18;1.02;;;20.80;40.50;;;;;;5115675;27;20028;-58
2021/12/02 07:41:26;;;;;;;7.38;0.80;;;20.70;41.20;;;;;;5114208;28;20084;-59
2021/12/02 07:43:52;;;;;;;6.35;1.20;;;20.60;41.30;;;;;;5115683;28;20099;-58
2021/12/02 07:46:18;;;;;;;5.38;0.70;;;20.60;41.40;;;;;;5115245;28;20114;-59
2021/12/02 07:48:47;;;;;;;4.07;0.80;;;20.50;41.30;;;;;;5114967;28;20020;-59
2021/12/02 07:51:16;;;;;;;4.38;0.80;;;20.40;41.10;;;;;;5115017;28;20027;-57
2021/12/02 07:53:45;;;;;;;3.35;0.77;;;20.30;40.40;;;;;;5113207;28;20036;-58
2021/12/02 07:56:13;;;;;;;3.90;0.90;;;20.20;40.40;;;;;;5114927;28;20485;-59
2021/12/02 07:58:42;;;;;;;4.28;0.90;;;20.10;40.10;;;;;;5114948;28;20381;-59
2021/12/02 08:01:08;;;;;;;1.70;0.85;;;20.10;40.40;;;;;;5114804;28;20099;-59
2021/12/02 08:03:34;;;;;;;4.65;1.38;;;20.20;40.40;;;;;;5114746;28;20159;-58
2021/12/02 08:06:01;;;;;;;14.00;2.78;;;20.20;39.60;;;;;;5115088;28;20030;-59
2021/12/02 08:08:26;;;;;;;5.03;1.00;;;20.20;40.40;;;;;;5096875;28;20728;-61
2021/12/02 08:10:53;;;;;;;5.07;1.00;;;20.20;40.40;;;;;;5114998;28;20035;-58
2021/12/02 08:13:25;;;;;;;12.15;1.88;;;20.30;40.90;;;;;;5115015;28;20084;-60
2021/12/02 08:15:51;;;;;;;8.77;1.50;;;20.40;40.10;;;;;;5113982;28;20039;-58
2021/12/02 08:18:19;;;;;;;7.20;1.77;;;20.40;39.50;;;;;;5095727;28;20023;-57
2021/12/02 08:20:45;;;;;;;9.20;1.67;;;20.20;39.60;;;;;;5114501;27;20492;-58
2021/12/02 08:23:12;;;;;;;8.65;1.63;;;20.40;40.00;;;;;;5114607;28;20011;-59
2021/12/02 08:25:38;;;;;;;11.55;1.67;;;20.40;39.70;;;;;;5114642;28;20016;-57
2021/12/02 08:28:04;;;;;;;6.88;1.40;;;20.30;38.80;;;;;;5114511;28;20028;-59
2021/12/02 08:30:33;;;;;;;8.10;1.02;;;20.30;37.70;;;;;;5114063;28;20008;-58
2021/12/02 08:32:59;;;;;;;3.58;1.27;;;20.10;37.80;;;;;;5114566;28;20011;-57
2021/12/02 08:35:27;;;;;;;4.25;0.95;;;20.10;37.90;;;;;;5114526;28;20045;-59
2021/12/02 08:37:57;;;;;;;1.95;0.80;;;20.10;37.70;;;;;;5114655;28;20091;-60
2021/12/02 08:40:30;;;;;;;3.65;0.85;;;19.90;37.60;;;;;;5113387;28;20016;-60
2021/12/02 08:42:57;;;;;;;2.58;0.70;;;19.90;37.50;;;;;;5114333;28;20027;-59
2021/12/02 08:45:22;;;;;;;4.25;0.85;;;19.90;37.30;;;;;;5114642;28;20097;-60
2021/12/02 08:47:48;;;;;;;1.52;0.80;;;19.80;37.10;;;;;;5094481;28;20505;-59
2021/12/02 08:50:15;;;;;;;2.00;0.82;;;19.60;37.00;;;;;;5114162;28;20380;-60
2021/12/02 08:52:41;;;;;;;3.50;1.05;;;19.40;37.40;;;;;;5112229;28;20018;-59
2021/12/02 08:55:07;;;;;;;4.82;0.98;;;19.30;37.80;;;;;;5112188;28;20008;-60
2021/12/02 08:57:35;;;;;;;2.63;1.27;;;19.20;37.60;;;;;;5114353;28;20012;-59
2021/12/02 09:00:02;;;;;;;3.10;1.50;;;19.20;38.00;;;;;;5112253;28;20091;-60
2021/12/02 09:02:28;;;;;;;9.45;2.00;;;19.10;38.20;;;;;;5113403;28;20012;-59
2021/12/02 09:04:54;;;;;;;4.97;2.00;;;19.00;38.50;;;;;;5112648;28;20042;-59
2021/12/02 09:07:21;;;;;;;4.53;1.92;;;19.00;38.30;;;;;;5113992;28;20035;-59
2021/12/02 09:09:47;;;;;;;9.73;2.22;;;19.20;38.00;;;;;;5078841;28;20122;-60
2021/12/02 09:12:13;;;;;;;5.43;2.30;;;19.50;37.70;;;;;;5113906;28;20542;-59
2021/12/02 09:14:39;;;;;;;5.10;2.10;;;19.70;37.20;;;;;;5112952;28;20362;-60
2021/12/02 09:17:05;;;;;;;8.55;2.00;;;20.00;36.90;;;;;;5111325;28;20012;-60
2021/12/02 09:19:31;;;;;;;5.32;2.10;;;20.20;36.50;;;;;;5112315;28;20469;-59
2021/12/02 09:21:57;;;;;;;9.32;1.90;;;20.40;36.20;;;;;;5114267;28;20051;-60
2021/12/02 09:24:24;;;;;;;9.15;2.25;;;20.50;36.00;;;;;;5115501;28;20012;-61
2021/12/02 09:26:51;;;;;;;6.20;2.00;;;20.70;35.90;;;;;;5115818;28;20020;-59
2021/12/02 09:29:18;;;;;;;8.02;2.33;;;20.70;36.10;;;;;;5112013;28;20032;-60
2021/12/02 09:31:44;;;;;;;5.60;2.17;;;20.80;35.90;;;;;;5112153;28;20065;-61
2021/12/02 09:34:10;;;;;;;4.40;1.83;;;20.90;35.70;;;;;;5112015;28;20022;-58
2021/12/02 09:36:36;;;;;;;8.25;2.40;;;21.00;35.60;;;;;;5114025;28;20020;-58
2021/12/02 09:39:03;;;;;;;5.20;1.80;;;21.10;35.50;;;;;;5112541;28;20024;-58
2021/12/02 09:41:29;;;;;;;5.43;2.53;;;21.20;35.40;;;;;;5113678;28;20031;-58
2021/12/02 09:43:55;;;;;;;7.68;2.10;;;21.20;35.40;;;;;;5113820;28;20024;-61
2021/12/02 09:46:21;;;;;;;7.50;2.17;;;21.30;35.30;;;;;;5112037;28;20027;-58
2021/12/02 09:48:47;;;;;;;6.18;1.80;;;21.40;35.80;;;;;;5113494;28;20050;-58
2021/12/02 09:51:19;;;;;;;5.80;2.05;;;21.40;35.10;;;;;;5111630;28;20016;-58
2021/12/02 09:54:30;;;;;;;6.22;2.00;;;21.40;35.10;;;;;;5113101;28;20012;-60
2021/12/02 09:56:38;;;;;;;5.97;2.15;;;21.50;34.90;;;;;;5109835;28;20440;-60
2021/12/02 09:59:10;;;;;;;4.13;2.00;;;21.60;35.00;;;;;;5111663;28;20050;-59
2021/12/02 10:01:47;;;;;;;6.50;2.13;;;21.60;35.00;;;;;;5112153;28;20024;-59
2021/12/02 10:04:13;;;;;;;4.78;1.85;;;21.60;34.50;;;;;;5113390;28;20016;-60
2021/12/02 10:06:41;;;;;;;4.63;1.95;;;21.60;34.80;;;;;;5112676;28;20099;-59
2021/12/02 10:09:15;;;;;;;9.20;2.05;;;21.60;34.70;;;;;;5112235;28;20054;-59
2021/12/02 10:12:01;;;;;;;5.45;2.05;;;21.70;34.70;;;;;;5112369;28;20016;-59
2021/12/02 10:14:33;;;;;;;5.93;1.63;;;21.70;34.70;;;;;;5109961;28;20008;-59
2021/12/02 10:17:21;;;;;;;6.03;2.20;;;21.60;34.60;;;;;;5111630;28;20456;-59
2021/12/02 10:20:10;;;;;;;3.92;1.55;;;21.60;34.60;;;;;;5112115;28;20027;-60
2021/12/02 10:22:36;;;;;;;3.05;1.55;;;21.60;34.60;;;;;;5111951;28;20038;-59
2021/12/02 10:25:02;;;;;;;5.50;1.60;;;21.60;34.60;;;;;;5112400;28;20020;-59
2021/12/02 10:27:33;;;;;;;4.68;1.70;;;21.60;34.50;;;;;;5111802;28;20476;-59
2021/12/02 10:29:59;;;;;;;3.97;1.50;;;21.70;34.40;;;;;;5111691;28;20016;-59
2021/12/02 10:32:31;;;;;;;4.20;1.45;;;21.70;34.40;;;;;;5111967;28;20513;-59
2021/12/02 10:35:01;;;;;;;3.33;1.50;;;21.70;34.20;;;;;;5111760;28;20041;-61
2021/12/02 10:37:29;;;;;;;3.92;1.77;;;21.80;34.30;;;;;;5111546;28;20034;-58
2021/12/02 10:40:11;;;;;;;4.72;1.65;;;21.80;34.20;;;;;;5111880;28;20099;-59
2021/12/02 10:42:42;;;;;;;3.50;1.30;;;21.90;34.20;;;;;;5111595;28;20126;-59
2021/12/02 10:45:22;;;;;;;2.88;1.20;;;21.90;34.10;;;;;;5110524;28;20008;-60
2021/12/02 10:47:49;;;;;;;4.30;1.60;;;21.90;34.10;;;;;;5111474;28;20032;-59
2021/12/02 10:50:15;;;;;;;7.32;1.35;;;21.80;34.10;;;;;;5111922;28;20253;-59
2021/12/02 10:52:41;;;;;;;3.08;1.30;;;21.90;34.20;;;;;;5110686;28;20024;-59
2021/12/02 10:55:12;;;;;;;4.72;1.20;;;21.90;34.10;;;;;;5109512;28;20426;-58
2021/12/02 10:57:39;;;;;;;;;;;21.90;34.20;;;;;;5112122;28;20020;-58
2021/12/02 11:00:12;;;;;;;2.85;1.17;;;21.80;34.20;;;;;;5112376;28;19919;-60
2021/12/02 11:02:41;;;;;;;2.97;1.25;;;21.90;34.30;;;;;;5110235;28;20157;-59
2021/12/02 11:05:21;;;;;;;2.80;1.20;;;21.90;34.20;;;;;;5110512;28;20038;-59
2021/12/02 11:07:54;;;;;;;2.40;1.15;;;21.90;34.10;;;;;;5111850;28;20035;-59
2021/12/02 11:10:20;;;;;;;2.50;1.10;;;21.90;34.10;;;;;;5112309;27;20062;-59
2021/12/02 11:12:50;;;;;;;4.40;1.15;;;21.90;34.10;;;;;;5115979;28;20019;-60
2021/12/02 11:15:35;;;;;;;2.70;1.05;;;21.90;34.10;;;;;;5115985;28;20019;-60
2021/12/02 11:18:02;;;;;;;3.00;0.75;;;21.90;34.20;;;;;;5116044;28;20031;-61
2021/12/02 11:20:34;;;;;;;2.08;0.93;;;21.90;34.10;;;;;;5115930;28;20011;-59
2021/12/02 11:23:14;;;;;;;3.28;1.10;;;21.90;34.00;;;;;;5116236;28;20012;-60
2021/12/02 11:25:49;;;;;;;2.17;0.85;;;21.90;34.00;;;;;;5114524;28;20026;-60
2021/12/02 11:28:16;;;;;;;2.17;1.05;;;22.00;34.00;;;;;;5115681;28;20485;-60
2021/12/02 11:30:41;;;;;;;2.30;0.93;;;22.00;33.90;;;;;;5114280;28;20011;-60
2021/12/02 11:33:08;;;;;;;2.00;0.77;;;22.00;33.80;;;;;;5114463;28;20474;-60
2021/12/02 11:35:44;;;;;;;2.13;0.90;;;22.00;33.80;;;;;;5115868;27;20012;-60
2021/12/02 11:38:22;;;;;;;1.35;0.80;;;22.00;33.70;;;;;;5115756;28;20026;-60
2021/12/02 11:40:54;;;;;;;3.40;0.77;;;22.00;33.70;;;;;;5116089;28;20046;-59
2021/12/02 11:43:23;;;;;;;3.55;1.00;;;22.10;33.70;;;;;;5115738;27;20027;-60
2021/12/02 11:45:50;;;;;;;2.25;0.80;;;22.10;33.70;;;;;;5114701;28;20484;-60
2021/12/02 11:48:23;;;;;;;1.17;0.70;;;22.10;33.70;;;;;;5096725;28;20089;-59
2021/12/02 11:50:54;;;;;;;2.88;1.10;;;22.10;33.60;;;;;;5113855;28;20080;-60
2021/12/02 11:53:23;;;;;;;2.42;0.90;;;22.10;33.60;;;;;;5114873;27;20015;-61
2021/12/02 11:55:51;;;;;;;3.33;0.90;;;22.20;33.60;;;;;;5114811;28;20022;-59
2021/12/02 11:58:17;;;;;;;2.30;0.73;;;22.20;33.50;;;;;;5096331;28;20039;-59
2021/12/02 12:00:44;;;;;;;1.88;0.70;;;22.20;33.50;;;;;;5113125;28;20026;-59
2021/12/02 12:03:24;;;;;;;2.53;0.63;;;22.20;33.50;;;;;;5112959;28;20130;-59
2021/12/02 12:06:10;;;;;;;1.60;0.77;;;22.20;33.50;;;;;;5114594;28;20458;-59
2021/12/02 12:08:39;;;;;;;1.70;0.68;;;22.20;33.50;;;;;;5114167;28;20466;-59
2021/12/02 12:11:23;;;;;;;3.63;0.82;;;22.20;33.40;;;;;;5114034;28;20023;-59
2021/12/02 12:14:01;;;;;;;1.85;0.80;;;22.30;33.50;;;;;;5113851;28;20020;-60
2021/12/02 12:16:43;;;;;;;1.58;0.75;;;22.30;33.40;;;;;;5113795;28;20474;-59
2021/12/02 12:19:28;;;;;;;1.70;0.75;;;22.30;33.30;;;;;;5114138;28;20015;-59
2021/12/02 12:21:56;;;;;;;0.90;0.60;;;22.30;33.30;;;;;;5113801;28;20020;-59
2021/12/02 12:24:41;;;;;;;4.10;1.00;;;22.30;33.30;;;;;;5112653;28;20104;-59
2021/12/02 12:27:11;;;;;;;1.70;0.70;;;22.40;33.20;;;;;;5113895;27;20430;-63
2021/12/02 12:29:37;;;;;;;1.75;0.90;;;22.40;33.30;;;;;;5112186;28;20032;-59
2021/12/02 12:32:26;;;;;;;1.27;0.70;;;22.40;33.20;;;;;;5113934;28;20020;-59
2021/12/02 12:34:55;;;;;;;1.13;0.60;;;22.40;33.20;;;;;;5113887;28;20434;-59
2021/12/02 12:38:04;;;;;;;1.52;0.70;;;22.40;33.20;;;;;;5095247;28;20012;-60
2021/12/02 12:40:19;;;;;;;1.45;0.68;;;22.40;33.20;;;;;;5109790;28;20031;-59
2021/12/02 12:42:57;;;;;;;1.90;1.00;;;22.40;33.70;;;;;;5113190;28;20012;-59
2021/12/02 12:45:31;;;;;;;2.83;1.00;;;22.30;33.50;;;;;;5112912;28;20106;-59
2021/12/02 12:48:01;;;;;;;13.02;1.15;;;21.60;34.50;;;;;;5114479;28;20067;-58
2021/12/02 12:50:36;;;;;;;3.80;0.93;;;21.30;35.40;;;;;;5114213;28;20015;-59
2021/12/02 12:53:17;;;;;;;2.58;0.80;;;21.00;35.70;;;;;;5114226;28;20469;-57
2021/12/02 12:55:57;;;;;;;1.90;0.70;;;20.90;36.20;;;;;;5114167;28;20047;-59
2021/12/02 12:58:30;;;;;;;3.37;0.80;;;20.80;36.50;;;;;;5113884;28;20426;-58
2021/12/02 13:01:24;;;;;;;1.52;0.77;;;20.70;37.30;;;;;;5114241;28;20016;-59
2021/12/02 13:04:17;;;;;;;2.40;0.93;;;20.50;36.70;;;;;;5113221;28;20020;-59
2021/12/02 13:07:09;;;;;;;2.22;1.08;;;20.40;37.80;;;;;;5113467;28;20012;-60
2021/12/02 13:09:58;;;;;;;6.38;1.20;;;20.20;37.20;;;;;;5113522;28;20508;-59
2021/12/02 13:12:51;;;;;;;4.43;0.95;;;20.40;38.70;;;;;;5112104;28;20016;-60